createdAt,value
2022-08-05T00:01:28.308Z,5.40
2022-08-05T00:03:57.206Z,7.32
2022-08-05T00:06:32.288Z,5.40
2022-08-05T00:09:00.529Z,7.03
2022-08-05T00:11:34.668Z,6.10
2022-08-05T00:14:02.318Z,6.30
2022-08-05T00:16:52.398Z,7.78
2022-08-05T00:19:19.604Z,5.03
2022-08-05T00:21:48.597Z,9.02
2022-08-05T00:24:18.879Z,7.15
2022-08-05T00:26:52.070Z,7.63
2022-08-05T00:29:22.592Z,4.97
2022-08-05T00:32:10.710Z,6.63
2022-08-05T00:35:04.623Z,6.93
2022-08-05T00:37:51.343Z,6.63
2022-08-05T00:40:26.979Z,6.43
2022-08-05T00:43:00.740Z,5.67
2022-08-05T00:45:37.918Z,9.65
2022-08-05T00:48:07.699Z,8.52
2022-08-05T00:53:00.837Z,7.75
2022-08-05T00:55:34.221Z,9.15
2022-08-05T00:58:11.087Z,8.98
2022-08-05T01:00:39.149Z,9.50
2022-08-05T01:03:07.729Z,5.68
2022-08-05T01:05:34.977Z,7.72
2022-08-05T01:08:42.157Z,7.82
2022-08-05T01:11:00.837Z,10.20
2022-08-05T01:13:58.551Z,5.50
2022-08-05T01:16:52.332Z,7.05
2022-08-05T01:19:21.771Z,7.95
2022-08-05T01:22:24.114Z,7.00
2022-08-05T01:25:13.551Z,6.10
2022-08-05T01:28:07.343Z,5.72
2022-08-05T01:30:39.696Z,9.85
2022-08-05T01:33:19.637Z,6.00
2022-08-05T01:35:50.657Z,7.47
2022-08-05T01:38:24.676Z,7.65
2022-08-05T01:40:57.373Z,7.78
2022-08-05T01:43:24.775Z,8.43
2022-08-05T01:45:56.433Z,4.65
2022-08-05T01:48:25.777Z,9.20
2022-08-05T01:50:55.349Z,9.52
2022-08-05T01:53:57.230Z,9.05
2022-08-05T01:56:11.897Z,5.65
2022-08-05T01:58:45.359Z,8.23
2022-08-05T02:01:14.303Z,7.55
2022-08-05T02:03:46.541Z,7.93
2022-08-05T02:06:33.614Z,8.95
2022-08-05T02:09:00.404Z,5.67
2022-08-05T02:11:52.536Z,11.57
2022-08-05T02:14:31.915Z,6.85
2022-08-05T02:17:05.288Z,7.68
2022-08-05T02:19:35.578Z,6.00
2022-08-05T02:22:25.364Z,8.93
2022-08-05T02:25:04.950Z,8.88
2022-08-05T02:27:58.620Z,7.68
2022-08-05T02:30:26.763Z,7.57
2022-08-05T02:32:57.719Z,8.10
2022-08-05T02:35:33.406Z,8.38
2022-08-05T02:38:06.130Z,7.05
2022-08-05T02:40:38.024Z,11.18
2022-08-05T02:43:07.177Z,9.95
2022-08-05T02:45:52.865Z,12.15
2022-08-05T02:48:29.070Z,6.07
2022-08-05T02:50:59.836Z,7.15
2022-08-05T02:53:27.793Z,8.73
2022-08-05T02:56:01.837Z,6.20
2022-08-05T02:58:30.136Z,8.07
2022-08-05T03:01:00.655Z,6.15
2022-08-05T03:03:33.904Z,8.30
2022-08-05T03:06:55.814Z,9.70
2022-08-05T03:09:04.314Z,10.48
2022-08-05T03:11:57.133Z,9.45
2022-08-05T03:14:17.826Z,5.43
2022-08-05T03:16:45.688Z,7.68
2022-08-05T03:19:29.465Z,6.90
2022-08-05T03:21:59.261Z,12.55
2022-08-05T03:24:29.396Z,9.65
2022-08-05T03:27:00.252Z,7.38
2022-08-05T03:29:44.796Z,8.05
2022-08-05T03:32:15.587Z,7.13
2022-08-05T03:34:50.831Z,7.47
2022-08-05T03:37:19.698Z,7.93
2022-08-05T03:40:00.979Z,8.20
2022-08-05T03:42:29.052Z,6.57
2022-08-05T03:44:57.082Z,12.20
2022-08-05T03:47:24.049Z,10.30
2022-08-05T03:49:52.450Z,8.27
2022-08-05T03:56:04.693Z,11.20
2022-08-05T03:58:16.110Z,6.47
2022-08-05T04:00:46.445Z,7.78
2022-08-05T04:03:28.641Z,6.60
2022-08-05T04:05:57.866Z,12.35
2022-08-05T04:08:34.689Z,7.75
2022-08-05T04:11:03.596Z,9.02
2022-08-05T04:13:51.328Z,8.60
2022-08-05T04:16:25.556Z,8.57
2022-08-05T04:19:00.191Z,8.60
2022-08-05T04:22:10.215Z,8.15
2022-08-05T04:24:18.794Z,7.93
2022-08-05T04:26:48.594Z,5.88
2022-08-05T04:29:14.992Z,9.88
2022-08-05T04:31:41.359Z,8.73
2022-08-05T04:34:19.303Z,10.82
2022-08-05T04:36:56.230Z,11.40
2022-08-05T04:39:22.751Z,8.27
2022-08-05T04:41:51.172Z,10.05
2022-08-05T04:44:29.559Z,7.80
2022-08-05T04:46:58.928Z,8.63
2022-08-05T04:49:38.689Z,9.80
2022-08-05T04:52:12.504Z,8.73
2022-08-05T04:54:38.984Z,7.32
2022-08-05T04:57:05.496Z,9.23
2022-08-05T04:59:38.274Z,10.88
2022-08-05T05:02:36.572Z,8.18
2022-08-05T05:04:52.694Z,5.95
2022-08-05T05:07:29.548Z,6.20
2022-08-05T05:09:58.465Z,6.30
2022-08-05T05:12:24.833Z,4.65
2022-08-05T05:14:54.036Z,7.97
2022-08-05T05:17:24.214Z,9.82
2022-08-05T05:19:56.405Z,9.38
2022-08-05T05:22:26.132Z,7.70
2022-08-05T05:24:59.997Z,5.13
2022-08-05T05:27:44.676Z,7.88
2022-08-05T05:30:29.736Z,6.85
2022-08-05T05:33:00.576Z,6.13
2022-08-05T05:35:34.330Z,7.70
2022-08-05T05:38:06.363Z,7.30
2022-08-05T05:40:36.225Z,8.32
2022-08-05T05:43:03.105Z,7.03
2022-08-05T05:45:29.790Z,6.90
2022-08-05T05:48:06.279Z,6.47
2022-08-05T05:50:41.295Z,6.63
2022-08-05T05:53:21.506Z,6.93
2022-08-05T06:01:04.870Z,4.45
2022-08-05T06:04:01.226Z,9.07
2022-08-05T06:06:31.237Z,7.38
2022-08-05T06:09:03.911Z,12.05
2022-08-05T06:11:31.232Z,7.85
2022-08-05T06:13:57.980Z,8.38
2022-08-05T06:16:33.082Z,6.47
2022-08-05T06:19:05.756Z,7.20
2022-08-05T06:21:36.820Z,4.95
2022-08-05T06:24:06.342Z,5.57
2022-08-05T06:26:37.714Z,7.57
2022-08-05T06:29:06.457Z,7.50
2022-08-05T06:31:51.229Z,6.80
2022-08-05T06:34:20.191Z,5.68
2022-08-05T06:36:57.657Z,7.40
2022-08-05T06:39:27.183Z,6.97
2022-08-05T06:41:56.071Z,8.10
2022-08-05T06:44:25.068Z,9.40
2022-08-05T06:46:52.584Z,3.38
2022-08-05T06:49:21.106Z,5.88
2022-08-05T06:52:07.423Z,9.43
2022-08-05T06:54:33.862Z,8.68
2022-08-05T06:57:57.632Z,6.25
2022-08-05T06:59:57.888Z,8.85
2022-08-05T07:02:24.666Z,6.38
2022-08-05T07:04:51.459Z,9.45
2022-08-05T07:07:24.192Z,8.60
2022-08-05T07:10:05.799Z,5.53
2022-08-05T07:12:53.599Z,7.55
2022-08-05T07:16:01.015Z,7.13
2022-08-05T07:18:30.141Z,3.95
2022-08-05T07:20:57.226Z,8.38
2022-08-05T07:23:26.537Z,6.85
2022-08-05T07:25:56.935Z,3.53
2022-08-05T07:28:25.067Z,6.53
2022-08-05T07:30:54.764Z,5.80
2022-08-05T07:33:37.019Z,5.75
2022-08-05T07:36:19.816Z,10.40
2022-08-05T07:38:47.331Z,10.35
2022-08-05T07:44:14.139Z,3.88
2022-08-05T07:46:48.387Z,5.88
2022-08-05T07:49:15.943Z,5.65
2022-08-05T07:51:53.520Z,5.57
2022-08-05T07:54:30.250Z,6.90
2022-08-05T07:57:13.312Z,5.15
2022-08-05T07:59:46.971Z,6.13
2022-08-05T08:02:17.676Z,3.28
2022-08-05T08:04:49.130Z,4.22
2022-08-05T08:07:17.729Z,4.78
2022-08-05T08:09:48.901Z,5.63
2022-08-05T08:12:37.082Z,5.45
2022-08-05T08:15:09.647Z,7.28
2022-08-05T08:17:46.321Z,4.83
2022-08-05T08:20:43.057Z,2.15
2022-08-05T08:23:07.436Z,3.75
2022-08-05T08:25:59.060Z,3.55
2022-08-05T08:28:36.240Z,5.00
2022-08-05T08:31:05.838Z,4.07
2022-08-05T08:33:37.693Z,6.45
2022-08-05T08:36:38.332Z,7.35
2022-08-05T08:38:55.451Z,5.20
2022-08-05T08:41:26.068Z,5.18
2022-08-05T08:45:18.466Z,3.25
2022-08-05T08:47:47.133Z,3.47
2022-08-05T08:50:05.963Z,4.28
2022-08-05T08:52:42.093Z,3.50
2022-08-05T08:55:14.111Z,3.25
2022-08-05T08:57:58.148Z,1.80
2022-08-05T09:00:25.222Z,5.60
2022-08-05T09:02:53.760Z,6.32
2022-08-05T09:05:38.707Z,3.67
2022-08-05T09:08:08.163Z,4.40
2022-08-05T09:10:36.372Z,3.47
2022-08-05T09:13:06.864Z,5.88
2022-08-05T09:15:37.152Z,2.90
2022-08-05T09:18:05.636Z,4.75
2022-08-05T09:20:37.511Z,2.63
2022-08-05T09:23:09.028Z,2.13
2022-08-05T09:26:01.629Z,3.25
2022-08-05T09:28:32.524Z,4.20
2022-08-05T09:31:23.461Z,1.33
2022-08-05T09:34:01.280Z,2.67
2022-08-05T09:36:56.001Z,4.47
2022-08-05T09:42:17.433Z,2.42
2022-08-05T09:44:51.311Z,1.05
2022-08-05T09:47:21.277Z,5.10
2022-08-05T09:50:00.598Z,1.63
2022-08-05T09:52:34.812Z,1.65
2022-08-05T09:55:06.335Z,1.15
2022-08-05T09:57:54.375Z,1.95
2022-08-05T10:00:25.784Z,1.95
2022-08-05T10:02:58.507Z,0.93
2022-08-05T10:05:27.968Z,2.47
2022-08-05T10:08:34.524Z,3.28
2022-08-05T10:10:44.766Z,0.80
2022-08-05T10:13:12.120Z,2.60
2022-08-05T10:15:41.690Z,2.05
2022-08-05T10:18:11.661Z,2.33
2022-08-05T10:20:44.339Z,1.13
2022-08-05T10:23:34.277Z,3.75
2022-08-05T10:26:14.189Z,2.30
2022-08-05T10:28:45.288Z,1.27
2022-08-05T10:32:49.184Z,1.55
2022-08-05T10:34:07.013Z,1.85
2022-08-05T10:36:39.490Z,3.25
2022-08-05T10:39:15.255Z,1.48
2022-08-05T10:42:11.870Z,1.70
2022-08-05T10:44:43.220Z,2.55
2022-08-05T10:47:26.700Z,1.67
2022-08-05T10:50:32.199Z,2.50
2022-08-05T10:53:02.993Z,3.20
2022-08-05T10:55:38.703Z,3.08
2022-08-05T10:58:20.507Z,1.67
2022-08-05T11:00:48.536Z,1.27
2022-08-05T11:03:23.747Z,2.67
2022-08-05T11:06:15.107Z,1.88
2022-08-05T11:09:16.431Z,1.75
2022-08-05T11:11:53.511Z,4.13
2022-08-05T11:14:57.562Z,1.75
2022-08-05T11:17:59.555Z,2.15
2022-08-05T11:20:39.283Z,2.05
2022-08-05T11:24:05.226Z,1.60
2022-08-05T11:26:32.430Z,3.28
2022-08-05T11:29:11.897Z,1.00
2022-08-05T11:31:58.907Z,1.85
2022-08-05T11:34:51.575Z,2.10
2022-08-05T11:38:29.692Z,1.73
2022-08-05T11:41:03.643Z,0.98
2022-08-05T11:44:06.989Z,5.05
2022-08-05T11:46:58.105Z,2.65
2022-08-05T11:49:38.981Z,2.13
2022-08-05T11:52:12.301Z,2.70
2022-08-05T11:54:41.352Z,2.40
2022-08-05T11:57:25.599Z,2.10
2022-08-05T11:59:54.217Z,1.13
2022-08-05T12:02:33.273Z,1.60
2022-08-05T12:05:06.816Z,3.78
2022-08-05T12:08:10.329Z,2.97
2022-08-05T12:10:42.970Z,1.50
2022-08-05T12:13:47.356Z,0.80
2022-08-05T12:16:17.699Z,1.20
2022-08-05T12:18:52.131Z,3.55
2022-08-05T12:21:20.998Z,2.10
2022-08-05T12:23:54.745Z,0.77
2022-08-05T12:26:23.084Z,1.55
2022-08-05T12:28:50.939Z,2.30
2022-08-05T12:31:23.219Z,2.53
2022-08-05T12:33:59.516Z,2.70
2022-08-05T12:36:28.194Z,1.80
2022-08-05T12:38:56.478Z,3.65
2022-08-05T12:41:23.004Z,3.17
2022-08-05T12:44:03.906Z,1.90
2022-08-05T12:46:32.256Z,1.35
2022-08-05T12:49:14.513Z,0.73
2022-08-05T12:52:12.355Z,2.08
2022-08-05T12:54:40.645Z,4.68
2022-08-05T12:57:09.678Z,2.65
2022-08-05T13:00:08.899Z,11.13
2022-08-05T13:02:30.822Z,2.20
2022-08-05T13:04:57.334Z,2.08
2022-08-05T13:12:42.539Z,0.70
2022-08-05T13:15:24.447Z,2.15
2022-08-05T13:18:02.694Z,2.20
2022-08-05T13:20:35.662Z,3.15
2022-08-05T13:23:07.340Z,1.73
2022-08-05T13:25:51.613Z,1.23
2022-08-05T13:28:21.833Z,2.50
2022-08-05T13:30:48.739Z,1.47
2022-08-05T13:34:24.326Z,3.25
2022-08-05T13:36:05.294Z,3.08
2022-08-05T13:41:05.918Z,5.63
2022-08-05T13:43:44.366Z,4.80
2022-08-05T13:46:13.423Z,3.10
2022-08-05T13:49:00.422Z,1.73
2022-08-05T13:51:29.646Z,0.93
2022-08-05T13:54:03.352Z,1.05
2022-08-05T13:56:38.680Z,2.20
2022-08-05T13:59:20.212Z,4.15
2022-08-05T14:01:57.555Z,1.98
2022-08-05T14:04:50.085Z,1.20
2022-08-05T14:07:26.237Z,1.85
2022-08-05T14:10:18.848Z,1.42
2022-08-05T14:12:54.773Z,1.90
2022-08-05T14:16:07.596Z,0.47
2022-08-05T14:18:15.196Z,3.40
2022-08-05T14:20:48.687Z,1.00
2022-08-05T14:23:23.380Z,1.15
2022-08-05T14:25:54.502Z,1.88
2022-08-05T14:28:26.263Z,2.67
2022-08-05T14:30:54.351Z,1.77
2022-08-05T14:33:22.792Z,4.05
2022-08-05T14:35:50.229Z,1.80
2022-08-05T14:38:31.808Z,4.40
2022-08-05T14:41:00.246Z,3.45
2022-08-05T14:44:01.905Z,2.43
2022-08-05T14:46:13.045Z,1.30
2022-08-05T14:48:39.512Z,0.98
2022-08-05T14:51:06.092Z,2.13
2022-08-05T14:53:44.458Z,1.85
2022-08-05T14:56:11.845Z,3.05
2022-08-05T14:58:39.803Z,2.65
2022-08-05T15:01:16.265Z,2.90
2022-08-05T15:03:43.915Z,4.38
2022-08-05T15:06:15.377Z,2.92
2022-08-05T15:09:01.124Z,2.38
2022-08-05T15:11:51.712Z,1.70
2022-08-05T15:14:34.821Z,3.05
2022-08-05T15:19:55.153Z,1.80
2022-08-05T15:22:21.665Z,4.53
2022-08-05T15:24:54.088Z,2.08
2022-08-05T15:27:20.493Z,1.83
2022-08-05T15:29:47.046Z,4.90
2022-08-05T15:32:16.429Z,3.25
2022-08-05T15:37:15.593Z,3.47
2022-08-05T15:41:03.016Z,2.05
2022-08-05T15:42:55.903Z,2.63
2022-08-05T15:45:18.772Z,1.73
2022-08-05T15:48:03.956Z,7.20
2022-08-05T15:50:30.449Z,3.70
2022-08-05T15:53:01.887Z,2.50
2022-08-05T15:56:03.998Z,3.17
2022-08-05T15:58:17.030Z,1.98
2022-08-05T16:00:50.620Z,1.77
2022-08-05T16:03:30.019Z,6.00
2022-08-05T16:05:59.320Z,4.05
2022-08-05T16:08:30.387Z,6.43
2022-08-05T16:10:57.788Z,3.85
2022-08-05T16:13:24.346Z,3.15
2022-08-05T16:16:00.976Z,3.63
2022-08-05T16:18:28.019Z,4.10
2022-08-05T16:20:55.590Z,1.55
2022-08-05T16:23:22.063Z,1.45
2022-08-05T16:25:49.970Z,2.67
2022-08-05T16:28:22.369Z,1.73
2022-08-05T16:30:52.023Z,2.33
2022-08-05T16:33:19.237Z,2.65
2022-08-05T16:35:48.749Z,2.47
2022-08-05T16:38:25.301Z,5.15
2022-08-05T16:41:00.252Z,2.45
2022-08-05T16:43:34.914Z,3.70
2022-08-05T16:46:23.497Z,1.90
2022-08-05T16:48:50.558Z,3.28
2022-08-05T16:51:17.449Z,3.80
2022-08-05T16:54:04.085Z,2.63
2022-08-05T16:56:33.939Z,4.75
2022-08-05T16:59:08.287Z,2.40
2022-08-05T17:01:53.217Z,2.55
2022-08-05T17:04:21.598Z,3.05
2022-08-05T17:06:53.505Z,2.67
2022-08-05T17:09:20.386Z,2.78
2022-08-05T17:11:48.718Z,3.40
2022-08-05T17:14:22.152Z,2.80
2022-08-05T17:17:01.200Z,3.30
2022-08-05T17:19:29.149Z,2.17
2022-08-05T17:24:33.928Z,3.35
2022-08-05T17:27:04.926Z,2.55
2022-08-05T17:29:33.098Z,2.72
2022-08-05T17:32:07.063Z,3.80
2022-08-05T17:34:35.022Z,3.53
2022-08-05T17:37:01.668Z,1.88
2022-08-05T17:39:29.787Z,2.80
2022-08-05T17:42:18.440Z,1.75
2022-08-05T17:44:50.230Z,1.80
2022-08-05T17:47:22.014Z,2.70
2022-08-05T17:49:56.753Z,5.10
2022-08-05T17:52:30.447Z,2.20
2022-08-05T17:54:57.694Z,4.90
2022-08-05T17:57:24.491Z,2.80
2022-08-05T18:00:03.483Z,2.00
2022-08-05T18:02:32.791Z,1.70
2022-08-05T18:05:02.767Z,3.83
2022-08-05T18:07:32.818Z,2.58
2022-08-05T18:10:09.810Z,3.92
2022-08-05T18:12:36.957Z,3.58
2022-08-05T18:15:04.197Z,2.53
2022-08-05T18:17:59.553Z,3.30
2022-08-05T18:20:19.336Z,4.75
2022-08-05T18:22:57.494Z,2.35
2022-08-05T18:25:25.042Z,4.80
2022-08-05T18:27:52.303Z,4.28
2022-08-05T18:30:19.601Z,2.28
2022-08-05T18:32:53.694Z,2.97
2022-08-05T18:35:49.539Z,1.45
2022-08-05T18:38:16.468Z,2.77
2022-08-05T18:41:55.933Z,2.92
2022-08-05T18:43:37.735Z,2.42
2022-08-05T18:46:06.938Z,4.13
2022-08-05T18:48:36.671Z,7.80
2022-08-05T18:52:05.294Z,1.48
2022-08-05T18:54:13.702Z,5.30
2022-08-05T18:56:40.448Z,2.17
2022-08-05T18:59:42.812Z,5.50
2022-08-05T19:01:58.203Z,2.50
2022-08-05T19:04:25.187Z,4.82
2022-08-05T19:06:51.912Z,7.28
2022-08-05T19:09:20.578Z,5.50
2022-08-05T19:12:00.727Z,4.40
2022-08-05T19:14:52.345Z,4.40
2022-08-05T19:17:16.494Z,4.38
2022-08-05T19:19:47.001Z,3.78
2022-08-05T19:22:17.254Z,3.60
2022-08-05T19:24:54.353Z,3.65
2022-08-05T19:27:23.712Z,4.32
2022-08-05T19:29:51.744Z,3.87
2022-08-05T19:32:18.334Z,2.50
2022-08-05T19:34:55.221Z,4.65
2022-08-05T19:37:29.835Z,5.53
2022-08-05T19:40:10.586Z,3.70
2022-08-05T19:42:38.728Z,6.50
2022-08-05T19:47:37.534Z,3.80
2022-08-05T19:50:04.843Z,3.75
2022-08-05T19:52:34.140Z,4.13
2022-08-05T19:58:06.791Z,2.55
2022-08-05T20:00:35.400Z,5.47
2022-08-05T20:03:01.815Z,7.80
2022-08-05T20:05:49.905Z,8.43
2022-08-05T20:08:17.139Z,5.28
2022-08-05T20:10:43.562Z,4.32
2022-08-05T20:13:10.889Z,4.47
2022-08-05T20:15:51.818Z,5.28
2022-08-05T20:18:33.133Z,7.30
2022-08-05T20:21:04.622Z,3.30
2022-08-05T20:23:39.726Z,3.20
2022-08-05T20:26:20.510Z,6.15
2022-08-05T20:28:52.734Z,8.93
2022-08-05T20:31:21.926Z,5.50
2022-08-05T20:33:50.107Z,4.82
2022-08-05T20:36:18.312Z,5.85
2022-08-05T20:38:53.779Z,6.90
2022-08-05T20:41:26.826Z,5.32
2022-08-05T20:44:17.534Z,4.32
2022-08-05T20:46:46.210Z,7.78
2022-08-05T20:49:13.651Z,7.18
2022-08-05T20:51:40.139Z,3.95
2022-08-05T20:54:06.775Z,7.35
2022-08-05T20:56:42.548Z,4.28
2022-08-05T20:59:14.274Z,4.28
2022-08-05T21:01:46.235Z,5.22
2022-08-05T21:04:13.720Z,6.13
2022-08-05T21:06:45.138Z,6.13
2022-08-05T21:09:14.279Z,4.57
2022-08-05T21:12:07.444Z,4.90
2022-08-05T21:14:28.193Z,6.38
2022-08-05T21:16:55.158Z,4.47
2022-08-05T21:19:21.527Z,7.38
2022-08-05T21:24:19.637Z,5.18
2022-08-05T21:26:58.342Z,6.03
2022-08-05T21:29:32.062Z,8.68
2022-08-05T21:31:58.780Z,8.65
2022-08-05T21:34:25.139Z,6.32
2022-08-05T21:36:51.744Z,8.18
2022-08-05T21:39:26.640Z,6.35
2022-08-05T21:42:01.673Z,4.10
2022-08-05T21:44:29.036Z,6.20
2022-08-05T21:46:58.210Z,5.03
2022-08-05T21:49:58.459Z,4.53
2022-08-05T21:52:22.923Z,5.70
2022-08-05T21:54:54.966Z,5.35
2022-08-05T21:57:31.466Z,6.20
2022-08-05T22:00:11.303Z,5.53
2022-08-05T22:02:38.465Z,4.90
2022-08-05T22:05:05.933Z,4.35
2022-08-05T22:07:54.461Z,6.68
2022-08-05T22:10:25.588Z,4.65
2022-08-05T22:12:54.438Z,6.90
2022-08-05T22:16:01.136Z,4.50
2022-08-05T22:18:11.239Z,6.45
2022-08-05T22:20:38.934Z,3.63
2022-08-05T22:23:25.045Z,2.92
2022-08-05T22:26:30.097Z,10.60
2022-08-05T22:28:56.493Z,3.85
2022-08-05T22:31:22.887Z,3.35
2022-08-05T22:33:57.944Z,6.05
2022-08-05T22:36:27.826Z,5.20
2022-08-05T22:38:55.730Z,7.33
2022-08-05T22:42:04.807Z,7.32
2022-08-05T22:44:09.457Z,3.65
2022-08-05T22:46:40.073Z,5.45
2022-08-05T22:49:12.379Z,4.10
2022-08-05T22:52:04.774Z,6.78
2022-08-05T22:54:34.951Z,11.23
2022-08-05T22:57:01.484Z,6.03
2022-08-05T22:59:45.458Z,5.53
2022-08-05T23:02:16.850Z,5.32
2022-08-05T23:04:43.734Z,7.22
2022-08-05T23:07:18.227Z,5.45
2022-08-05T23:09:58.400Z,7.47
2022-08-05T23:12:32.951Z,5.72
2022-08-05T23:15:03.547Z,2.60
2022-08-05T23:17:34.368Z,5.63
2022-08-05T23:20:16.820Z,7.75
2022-08-05T23:22:47.828Z,7.10
2022-08-05T23:25:53.688Z,6.50
2022-08-05T23:28:07.026Z,4.20
2022-08-05T23:30:40.648Z,7.07
2022-08-05T23:33:16.008Z,6.38
2022-08-05T23:35:50.479Z,7.55
2022-08-05T23:38:17.260Z,5.65
2022-08-05T23:40:50.271Z,8.50
2022-08-05T23:43:25.422Z,5.63
2022-08-05T23:46:05.214Z,7.45
2022-08-05T23:49:00.512Z,6.82
2022-08-05T23:51:53.626Z,6.75
2022-08-05T23:54:30.475Z,7.38
2022-08-05T23:57:04.623Z,7.68
2022-08-05T23:59:37.574Z,6.05
